createdAt,value
2018-03-11T00:00:13.573Z,11.5
2018-03-11T00:10:27.726Z,11.5
2018-03-11T00:20:42.099Z,11.5
2018-03-11T00:30:56.919Z,11.4
2018-03-11T00:41:10.448Z,11.3
2018-03-11T00:51:24.200Z,11.3
2018-03-11T01:01:37.788Z,11.3
2018-03-11T01:11:52.041Z,11.2
2018-03-11T01:22:05.890Z,11.1
2018-03-11T01:32:21.149Z,11.1
2018-03-11T01:42:35.123Z,11.0
2018-03-11T01:52:49.485Z,10.9
2018-03-11T02:03:03.489Z,10.8
2018-03-11T02:13:16.727Z,10.6
2018-03-11T02:23:29.956Z,10.4
2018-03-11T02:33:41.212Z,10.1
2018-03-11T02:44:26.117Z,9.7
2018-03-11T02:54:38.384Z,9.7
2018-03-11T03:04:51.835Z,9.4
2018-03-11T03:15:37.404Z,8.9
2018-03-11T03:26:22.592Z,8.7
2018-03-11T03:36:34.554Z,8.7
2018-03-11T03:46:48.779Z,8.5
2018-03-11T03:57:02.690Z,8.3
2018-03-11T04:07:14.673Z,8.0
2018-03-11T04:18:00.190Z,7.6
2018-03-11T04:28:46.102Z,7.5
2018-03-11T04:39:31.165Z,7.3
2018-03-11T04:49:44.776Z,7.3
2018-03-11T04:59:58.801Z,7.2
2018-03-11T05:10:10.340Z,7.0
2018-03-11T05:20:56.184Z,6.8
2018-03-11T05:41:57.433Z,6.8
2018-03-11T05:52:43.640Z,6.8
2018-03-11T06:02:57.322Z,6.8
2018-03-11T06:13:11.591Z,6.9
2018-03-11T06:23:56.683Z,6.9
2018-03-11T06:34:14.136Z,6.9
2018-03-11T06:44:27.678Z,6.9
2018-03-11T06:54:41.798Z,7.0
2018-03-11T07:04:55.164Z,7.1
2018-03-11T07:15:10.495Z,7.3
2018-03-11T07:25:25.113Z,7.5
2018-03-11T07:35:39.365Z,7.7
2018-03-11T07:46:09.565Z,7.9
2018-03-11T07:56:20.727Z,8.2
2018-03-11T08:06:35.611Z,8.5
2018-03-11T08:16:49.570Z,8.9
2018-03-11T08:27:20.052Z,9.3
2018-03-11T08:37:34.142Z,9.7
2018-03-11T08:48:08.460Z,10.0
2018-03-11T08:58:22.589Z,10.3
2018-03-11T09:08:41.074Z,10.6
2018-03-11T09:18:55.468Z,10.8
2018-03-11T09:29:16.767Z,10.9
2018-03-11T09:39:33.371Z,11.1
2018-03-11T09:49:57.802Z,11.3
2018-03-11T10:10:29.631Z,12.1
2018-03-11T10:20:44.024Z,12.9
2018-03-11T10:31:06.681Z,13.3
2018-03-11T10:41:51.797Z,13.7
2018-03-11T10:52:51.650Z,13.8
2018-03-11T11:03:20.337Z,13.8
2018-03-11T11:13:46.880Z,13.8
2018-03-11T11:24:42.121Z,14.1
2018-03-11T11:36:24.044Z,14.4
2018-03-11T11:59:07.516Z,14.8
2018-03-11T12:20:36.500Z,14.9
2018-03-11T12:35:48.577Z,14.9
2018-03-11T12:46:51.648Z,14.9
2018-03-11T12:57:47.937Z,14.9
2018-03-11T13:09:08.788Z,15.0
2018-03-11T14:58:02.267Z,16.1
2018-03-11T15:10:23.640Z,16.0
2018-03-11T15:38:57.023Z,15.9
2018-03-11T15:55:48.705Z,16.0
2018-03-11T16:11:33.080Z,16.0
2018-03-11T16:22:52.215Z,16.0
2018-03-11T16:34:11.336Z,15.9
2018-03-11T16:45:33.085Z,15.6
2018-03-11T16:55:47.482Z,15.6
2018-03-11T17:05:59.446Z,15.4
2018-03-11T17:16:13.624Z,15.2
2018-03-11T17:27:07.895Z,14.9
2018-03-11T17:37:50.034Z,14.7
2018-03-11T18:26:20.421Z,12.7
2018-03-11T18:55:33.490Z,11.8
2018-03-11T19:06:29.986Z,11.4
2018-03-11T19:27:35.302Z,10.6
2018-03-11T19:38:27.162Z,10.3
2018-03-11T19:48:44.411Z,10.3
2018-03-11T20:21:48.660Z,9.2
2018-03-11T20:35:39.249Z,9.0
2018-03-11T21:01:29.620Z,8.8
2018-03-11T21:12:31.005Z,8.2
2018-03-11T21:45:13.054Z,7.8
2018-03-11T21:57:20.427Z,7.4
2018-03-11T22:07:58.065Z,7.4
2018-03-11T22:28:36.779Z,7.0
2018-03-11T22:39:24.525Z,6.6
2018-03-11T22:49:39.236Z,6.6
2018-03-11T22:59:57.288Z,6.5
2018-03-11T23:25:00.356Z,6.1
